Pagrindinis puslapis
METAR-TAF:

METAR-TAF

Oro uostai :

Nasau, Bahamos

platuma: 25-03N, ilguma: 077-28W, Aukštis: 3 m

Dabartinis oras

Ataskaita buvo paskelbta 32 minutes, ne 22:00 UTC
Vėjas 10 kt iš Rytų/Pietryčių
Temperatūra 29°C
Drėgmė 62%
Slėgis 1015 hPa
Matomumas 10 km arba daugiau
Išsisklaidę debesys ne aukštis 2500 ft
Išsisklaidę debesys ne aukštis 20000 ft

METAR: MYNN 302200Z 11010KT 9999 SCT025 SCT200 29/21 A2998

Laikas: 18:32 (22:32 UTC)

Prognozė

Ataskaita buvo paskelbta 5 valandos ir 32 minutes, ne 17:00 UTC
Prognozė galioja nuo 30 metu 18 UTC su 31 metu 18 UTC
Vėjas 10 kt iš Rytų/Pietryčių
Matomumas 10 km arba daugiau
Išsisklaidę debesys ne aukštis 2000 ft
Tapsmas
nuo 31 metu 06 UTC su 31 metu 08 UTC
Vėjas 5 kt iš Pietryčių

TAF: MYNN 301700Z 3018/3118 12010KT 9999 SCT020 BECMG 3106/3108 14005KT

Orai ataskaitas ir orų prognozės (METAR, TAF).

turimą stotys yra geltonos ir raudonos taškus žemėlapyje.

Perkelti pele per norėdami pamatyti stoties vardą.

Tada spustelėkite, norėdami matyti oro stebėjimo ir prognozės.

Norėdami pakeisti žemėlapį: spustelėkite ant žalios mygtukų su juodo kryžiaus žemyn,; žalią mygtuką su brūkšneliu, jei norite nutolinti; arba žalių rodyklių gretimoms žemėlapius.


METAR-TAF: